APL New Jersey — A8NM6 — position and weather

sailwx.info

Track history (hours):
 
Tides and Currents Weather Stations Pressure Air Temp Water Temp Dewpoint Dewpoint Depression Visibility Wind Speed Wind Dir Waves Ship Positions

APL New Jersey

Last reported at 2015-Jul-03 13:24 UTC. Time now 2015-Jul-04 19:04 UTC.
Position N 33°56' E 129°20'.

Length 293 m; draft 10.8 m.

Type: Cargo ship. MMSI: 636013522.

Date/timePositionNaut miles runAvg speedWind from/ knotsBaromVisibWave heightAir tempDewpointWater temp
2015-Jul-03 13:24N 33°56' E 129°20'29921.1
2015-Jul-02 23:15N 30°47' E 124°46'1420.4
2015-Jul-02 22:33N 30°39' E 124°32'2120.5
2015-Jul-02 21:33N 30°29' E 124°12'2120.8
2015-Jul-02 20:33N 30°17' E 123°52'2120.9
2015-Jul-02 19:33N 30°07' E 123°31'2121.3
2015-Jul-02 18:33N 29°57' E 123°09'2121.4
2015-Jul-02 17:33N 29°48' E 122°47'1919.1
2015-Jul-02 16:33N 29°43' E 122°25'1111.1
2015-Jul-02 15:34N 29°48' E 122°14'10 9.7
2015-Jul-02 14:33N 29°55' E 122°07'1110.8
2015-Jul-02 13:33N 29°57' E 121°55'2 0.7
2015-Jul-02 10:16N 29°56' E 121°52'0 0.0
2015-Jul-02 08:28N 29°56' E 121°52'0 0.0
2015-Jul-02 07:22N 29°56' E 121°52'0 0.0
2015-Jul-02 05:28N 29°56' E 121°52'0 0.0
2015-Jul-02 04:16N 29°56' E 121°52'0 0.0
2015-Jul-02 03:31N 29°56' E 121°52'0 0.0
2015-Jul-02 02:28N 29°56' E 121°52'0 0.0
2015-Jul-02 01:28N 29°56' E 121°52'0 0.0
2015-Jul-02 00:28N 29°56' E 121°52'0 0.5
2015-Jul-01 23:33N 29°56' E 121°53'9 8.6
2015-Jul-01 22:33N 29°55' E 122°02'1211.6
2015-Jul-01 21:33N 29°49' E 122°14'8 8.4
2015-Jul-01 20:33N 29°44' E 122°21'4 4.1
2015-Jul-01 19:33N 29°43' E 122°26'3 1.0
2015-Jul-01 16:30N 29°44' E 122°29'0 0.1
2015-Jul-01 13:24N 29°44' E 122°29'0 0.0
2015-Jul-01 12:06N 29°44' E 122°29'0 0.1
2015-Jul-01 11:30N 29°44' E 122°29'0 0.0
2015-Jul-01 09:24N 29°44' E 122°29'0 0.1
2015-Jul-01 08:12N 29°44' E 122°29'0 0.1
2015-Jul-01 06:30N 29°44' E 122°29'0 0.0
2015-Jul-01 04:30N 29°44' E 122°29'0 0.1
2015-Jul-01 02:06N 29°44' E 122°29'0 0.1
2015-Jun-30 23:07N 29°44' E 122°29'0 0.1
2015-Jun-30 21:19N 29°44' E 122°29'0 0.1
2015-Jun-30 19:29N 29°44' E 122°29'0 0.1
2015-Jun-30 18:32N 29°44' E 122°29'0 0.1
2015-Jun-30 17:33N 29°44' E 122°29'0 0.1
2015-Jun-30 16:33N 29°44' E 122°29'7 7.1
2015-Jun-30 15:34N 29°43' E 122°37'1110.7
2015-Jun-30 14:33N 29°50' E 122°47'76 9.4
2015-Jun-30 06:29N 31°05' E 122°34'1213.1
2015-Jun-30 05:33N 31°06' E 122°20'2311.5
2015-Jun-30 03:32N 31°16' E 121°55'1212.1
2015-Jun-30 02:33N 31°20' E 121°42'7 6.8
2015-Jun-30 01:33N 31°23' E 121°35'0 0.0
2015-Jun-30 00:33N 31°22' E 121°35'0 0.0
2015-Jun-29 23:33N 31°22' E 121°35'0 0.0
2015-Jun-29 22:33N 31°22' E 121°35'0 0.1
2015-Jun-29 21:33N 31°22' E 121°35'0 0.1
2015-Jun-29 20:30N 31°23' E 121°35'0 0.0
2015-Jun-29 19:33N 31°23' E 121°35'0 0.0
2015-Jun-29 18:33N 31°22' E 121°35'0 0.0
2015-Jun-29 17:30N 31°23' E 121°35'0 0.0
2015-Jun-29 16:33N 31°22' E 121°35'0 0.0
2015-Jun-29 15:30N 31°23' E 121°35'0 0.0
2015-Jun-29 14:33N 31°22' E 121°35'0 0.0
2015-Jun-29 13:33N 31°23' E 121°35'0 0.0
2015-Jun-29 12:30N 31°22' E 121°35'0 0.0
2015-Jun-29 11:33N 31°23' E 121°35'0 0.0
2015-Jun-29 10:33N 31°22' E 121°35'0 0.0
2015-Jun-29 09:33N 31°23' E 121°35'0 0.0
2015-Jun-29 08:33N 31°22' E 121°35'0 0.0
2015-Jun-29 07:33N 31°22' E 121°35'0 0.0
2015-Jun-29 06:33N 31°22' E 121°35'0 0.0
2015-Jun-29 05:33N 31°22' E 121°35'0 0.0
2015-Jun-29 04:33N 31°23' E 121°35'0 0.0
2015-Jun-29 03:33N 31°22' E 121°35'0 0.0
2015-Jun-29 02:30N 31°23' E 121°35'0 0.0
2015-Jun-29 01:33N 31°22' E 121°35'1 0.9
2015-Jun-29 00:33N 31°23' E 121°34'7 6.8
2015-Jun-28 23:33N 31°20' E 121°41'1111.4
2015-Jun-28 22:32N 31°16' E 121°54'  
2015-Jun-25 21:20N 31°16' E 122°40'0 0.1
2015-Jun-25 16:32N 31°16' E 122°40'0 0.0
2015-Jun-25 15:26N 31°16' E 122°40'0 0.1
2015-Jun-25 12:11N 31°17' E 122°40'0 0.1
2015-Jun-25 11:26N 31°17' E 122°40'0 0.0
2015-Jun-25 09:32N 31°17' E 122°40'0 0.1
2015-Jun-25 08:33N 31°17' E 122°40'0 0.1
2015-Jun-25 07:33N 31°17' E 122°40'0 0.1
2015-Jun-25 06:33N 31°17' E 122°40'0 0.1
2015-Jun-25 05:32N 31°17' E 122°40'0 0.1
2015-Jun-25 04:33N 31°17' E 122°40'0 0.0
2015-Jun-25 03:33N 31°17' E 122°40'0 0.1
2015-Jun-25 02:33N 31°17' E 122°40'0 0.1
2015-Jun-25 01:33N 31°17' E 122°40'0 0.0
2015-Jun-25 00:33N 31°17' E 122°40'0 0.0
2015-Jun-24 23:33N 31°17' E 122°40'0 0.0
2015-Jun-24 22:11N 31°17' E 122°40'0 0.0
2015-Jun-24 21:30N 31°17' E 122°40'0 0.0
2015-Jun-24 16:14N 31°16' E 122°40'0 0.1
2015-Jun-24 15:14N 31°16' E 122°40'0 0.1
2015-Jun-24 14:33N 31°16' E 122°40'0 0.1
2015-Jun-24 13:31N 31°16' E 122°40'0 0.0
2015-Jun-24 12:33N 31°16' E 122°40'0 0.0
2015-Jun-24 11:33N 31°17' E 122°40'0 0.1
2015-Jun-24 10:33N 31°17' E 122°40'0 0.0
2015-Jun-24 01:33N 31°17' E 122°40'0 0.1
2015-Jun-24 00:33N 31°17' E 122°40'0 0.1
2015-Jun-23 23:33N 31°17' E 122°40'0 0.1
2015-Jun-23 22:32N 31°17' E 122°40'0 0.1
2015-Jun-23 21:33N 31°17' E 122°40'0 0.1
2015-Jun-23 20:33N 31°17' E 122°40'0 0.1
2015-Jun-23 19:33N 31°17' E 122°40'0 0.0
2015-Jun-23 19:06N 31°17' E 122°40'  
Track history (hours):
 
Tides and Currents Weather Stations Pressure Air Temp Water Temp Dewpoint Dewpoint Depression Visibility Wind Speed Wind Dir Waves Ship Positions

APL New Jersey

Last reported at 2015-Jul-03 13:24 UTC. Time now 2015-Jul-04 19:04 UTC.
Position N 33°56' E 129°20'.

Length 293 m; draft 10.8 m.

Type: Cargo ship. MMSI: 636013522.

Date/timePositionNaut miles runAvg speedWind from/ knotsBaromVisibWave heightAir tempDewpointWater temp
2015-Jul-03 13:24N 33°56' E 129°20'29921.1
2015-Jul-02 23:15N 30°47' E 124°46'1420.4
2015-Jul-02 22:33N 30°39' E 124°32'2120.5
2015-Jul-02 21:33N 30°29' E 124°12'2120.8
2015-Jul-02 20:33N 30°17' E 123°52'2120.9
2015-Jul-02 19:33N 30°07' E 123°31'2121.3
2015-Jul-02 18:33N 29°57' E 123°09'2121.4
2015-Jul-02 17:33N 29°48' E 122°47'1919.1
2015-Jul-02 16:33N 29°43' E 122°25'1111.1
2015-Jul-02 15:34N 29°48' E 122°14'10 9.7
2015-Jul-02 14:33N 29°55' E 122°07'1110.8
2015-Jul-02 13:33N 29°57' E 121°55'2 0.7
2015-Jul-02 10:16N 29°56' E 121°52'0 0.0
2015-Jul-02 08:28N 29°56' E 121°52'0 0.0
2015-Jul-02 07:22N 29°56' E 121°52'0 0.0
2015-Jul-02 05:28N 29°56' E 121°52'0 0.0
2015-Jul-02 04:16N 29°56' E 121°52'0 0.0
2015-Jul-02 03:31N 29°56' E 121°52'0 0.0
2015-Jul-02 02:28N 29°56' E 121°52'0 0.0
2015-Jul-02 01:28N 29°56' E 121°52'0 0.0
2015-Jul-02 00:28N 29°56' E 121°52'0 0.5
2015-Jul-01 23:33N 29°56' E 121°53'9 8.6
2015-Jul-01 22:33N 29°55' E 122°02'1211.6
2015-Jul-01 21:33N 29°49' E 122°14'8 8.4
2015-Jul-01 20:33N 29°44' E 122°21'4 4.1
2015-Jul-01 19:33N 29°43' E 122°26'3 1.0
2015-Jul-01 16:30N 29°44' E 122°29'0 0.1
2015-Jul-01 13:24N 29°44' E 122°29'0 0.0
2015-Jul-01 12:06N 29°44' E 122°29'0 0.1
2015-Jul-01 11:30N 29°44' E 122°29'0 0.0
2015-Jul-01 09:24N 29°44' E 122°29'0 0.1
2015-Jul-01 08:12N 29°44' E 122°29'0 0.1
2015-Jul-01 06:30N 29°44' E 122°29'0 0.0
2015-Jul-01 04:30N 29°44' E 122°29'0 0.1
2015-Jul-01 02:06N 29°44' E 122°29'0 0.1
2015-Jun-30 23:07N 29°44' E 122°29'0 0.1
2015-Jun-30 21:19N 29°44' E 122°29'0 0.1
2015-Jun-30 19:29N 29°44' E 122°29'0 0.1
2015-Jun-30 18:32N 29°44' E 122°29'0 0.1
2015-Jun-30 17:33N 29°44' E 122°29'0 0.1
2015-Jun-30 16:33N 29°44' E 122°29'7 7.1
2015-Jun-30 15:34N 29°43' E 122°37'1110.7
2015-Jun-30 14:33N 29°50' E 122°47'76 9.4
2015-Jun-30 06:29N 31°05' E 122°34'1213.1
2015-Jun-30 05:33N 31°06' E 122°20'2311.5
2015-Jun-30 03:32N 31°16' E 121°55'1212.1
2015-Jun-30 02:33N 31°20' E 121°42'7 6.8
2015-Jun-30 01:33N 31°23' E 121°35'0 0.0
2015-Jun-30 00:33N 31°22' E 121°35'0 0.0
2015-Jun-29 23:33N 31°22' E 121°35'0 0.0
2015-Jun-29 22:33N 31°22' E 121°35'0 0.1
2015-Jun-29 21:33N 31°22' E 121°35'0 0.1
2015-Jun-29 20:30N 31°23' E 121°35'0 0.0
2015-Jun-29 19:33N 31°23' E 121°35'0 0.0
2015-Jun-29 18:33N 31°22' E 121°35'0 0.0
2015-Jun-29 17:30N 31°23' E 121°35'0 0.0
2015-Jun-29 16:33N 31°22' E 121°35'0 0.0
2015-Jun-29 15:30N 31°23' E 121°35'0 0.0
2015-Jun-29 14:33N 31°22' E 121°35'0 0.0
2015-Jun-29 13:33N 31°23' E 121°35'0 0.0
2015-Jun-29 12:30N 31°22' E 121°35'0 0.0
2015-Jun-29 11:33N 31°23' E 121°35'0 0.0
2015-Jun-29 10:33N 31°22' E 121°35'0 0.0
2015-Jun-29 09:33N 31°23' E 121°35'0 0.0
2015-Jun-29 08:33N 31°22' E 121°35'0 0.0
2015-Jun-29 07:33N 31°22' E 121°35'0 0.0
2015-Jun-29 06:33N 31°22' E 121°35'0 0.0
2015-Jun-29 05:33N 31°22' E 121°35'0 0.0
2015-Jun-29 04:33N 31°23' E 121°35'0 0.0
2015-Jun-29 03:33N 31°22' E 121°35'0 0.0
2015-Jun-29 02:30N 31°23' E 121°35'0 0.0
2015-Jun-29 01:33N 31°22' E 121°35'1 0.9
2015-Jun-29 00:33N 31°23' E 121°34'7 6.8
2015-Jun-28 23:33N 31°20' E 121°41'1111.4
2015-Jun-28 22:32N 31°16' E 121°54'  
2015-Jun-25 21:20N 31°16' E 122°40'0 0.1
2015-Jun-25 16:32N 31°16' E 122°40'0 0.0
2015-Jun-25 15:26N 31°16' E 122°40'0 0.1
2015-Jun-25 12:11N 31°17' E 122°40'0 0.1
2015-Jun-25 11:26N 31°17' E 122°40'0 0.0
2015-Jun-25 09:32N 31°17' E 122°40'0 0.1
2015-Jun-25 08:33N 31°17' E 122°40'0 0.1
2015-Jun-25 07:33N 31°17' E 122°40'0 0.1
2015-Jun-25 06:33N 31°17' E 122°40'0 0.1
2015-Jun-25 05:32N 31°17' E 122°40'0 0.1
2015-Jun-25 04:33N 31°17' E 122°40'0 0.0
2015-Jun-25 03:33N 31°17' E 122°40'0 0.1
2015-Jun-25 02:33N 31°17' E 122°40'0 0.1
2015-Jun-25 01:33N 31°17' E 122°40'0 0.0
2015-Jun-25 00:33N 31°17' E 122°40'0 0.0
2015-Jun-24 23:33N 31°17' E 122°40'0 0.0
2015-Jun-24 22:11N 31°17' E 122°40'0 0.0
2015-Jun-24 21:30N 31°17' E 122°40'0 0.0
2015-Jun-24 16:14N 31°16' E 122°40'0 0.1
2015-Jun-24 15:14N 31°16' E 122°40'0 0.1
2015-Jun-24 14:33N 31°16' E 122°40'0 0.1
2015-Jun-24 13:31N 31°16' E 122°40'0 0.0
2015-Jun-24 12:33N 31°16' E 122°40'0 0.0
2015-Jun-24 11:33N 31°17' E 122°40'0 0.1
2015-Jun-24 10:33N 31°17' E 122°40'0 0.0
2015-Jun-24 01:33N 31°17' E 122°40'0 0.1
2015-Jun-24 00:33N 31°17' E 122°40'0 0.1
2015-Jun-23 23:33N 31°17' E 122°40'0 0.1
2015-Jun-23 22:32N 31°17' E 122°40'0 0.1
2015-Jun-23 21:33N 31°17' E 122°40'0 0.1
2015-Jun-23 20:33N 31°17' E 122°40'0 0.1
2015-Jun-23 19:33N 31°17' E 122°40'0 0.0
2015-Jun-23 19:06N 31°17' E 122°40'  

Dump ship's entire track history